sensor_id;sensor_type;location;lat;lon;timestamp;P1;durP1;ratioP1;P2;durP2;ratioP2
81273;SDS011;70753;47.908;11.274;2023-12-22T00:01:10;1.17;;;0.63;;
81273;SDS011;70753;47.908;11.274;2023-12-22T00:03:36;1.33;;;0.75;;
81273;SDS011;70753;47.908;11.274;2023-12-22T00:06:01;3.15;;;0.90;;
81273;SDS011;70753;47.908;11.274;2023-12-22T00:08:27;2.28;;;0.60;;
81273;SDS011;70753;47.908;11.274;2023-12-22T00:10:53;2.67;;;0.60;;
81273;SDS011;70753;47.908;11.274;2023-12-22T00:13:18;1.25;;;0.60;;
81273;SDS011;70753;47.908;11.274;2023-12-22T00:15:45;1.67;;;0.60;;
81273;SDS011;70753;47.908;11.274;2023-12-22T00:18:11;2.92;;;0.70;;
81273;SDS011;70753;47.908;11.274;2023-12-22T00:20:36;1.90;;;0.80;;
81273;SDS011;70753;47.908;11.274;2023-12-22T00:23:01;3.58;;;1.00;;
81273;SDS011;70753;47.908;11.274;2023-12-22T00:25:27;2.83;;;0.85;;
81273;SDS011;70753;47.908;11.274;2023-12-22T00:27:52;1.30;;;0.55;;
81273;SDS011;70753;47.908;11.274;2023-12-22T00:30:18;2.40;;;0.82;;
81273;SDS011;70753;47.908;11.274;2023-12-22T00:32:45;1.42;;;0.60;;
81273;SDS011;70753;47.908;11.274;2023-12-22T00:35:10;3.58;;;0.80;;
81273;SDS011;70753;47.908;11.274;2023-12-22T00:37:35;1.60;;;0.60;;
81273;SDS011;70753;47.908;11.274;2023-12-22T00:40:01;1.38;;;0.70;;
81273;SDS011;70753;47.908;11.274;2023-12-22T00:42:26;2.53;;;0.90;;
81273;SDS011;70753;47.908;11.274;2023-12-22T00:44:52;3.55;;;0.80;;
81273;SDS011;70753;47.908;11.274;2023-12-22T00:47:18;2.90;;;0.95;;
81273;SDS011;70753;47.908;11.274;2023-12-22T00:49:45;4.50;;;0.95;;
81273;SDS011;70753;47.908;11.274;2023-12-22T00:52:11;1.35;;;0.65;;
81273;SDS011;70753;47.908;11.274;2023-12-22T00:54:36;1.27;;;0.63;;
81273;SDS011;70753;47.908;11.274;2023-12-22T00:57:02;1.60;;;0.80;;
81273;SDS011;70753;47.908;11.274;2023-12-22T00:59:27;1.67;;;0.80;;
81273;SDS011;70753;47.908;11.274;2023-12-22T01:01:52;1.98;;;0.65;;
81273;SDS011;70753;47.908;11.274;2023-12-22T01:04:19;1.45;;;0.77;;
81273;SDS011;70753;47.908;11.274;2023-12-22T01:06:46;1.13;;;0.68;;
81273;SDS011;70753;47.908;11.274;2023-12-22T01:09:11;0.45;;;0.43;;
81273;SDS011;70753;47.908;11.274;2023-12-22T01:11:37;0.98;;;0.40;;
81273;SDS011;70753;47.908;11.274;2023-12-22T01:14:03;0.40;;;0.40;;
81273;SDS011;70753;47.908;11.274;2023-12-22T01:16:29;0.93;;;0.43;;
81273;SDS011;70753;47.908;11.274;2023-12-22T01:18:54;0.30;;;0.30;;
81273;SDS011;70753;47.908;11.274;2023-12-22T01:21:19;1.17;;;0.60;;
81273;SDS011;70753;47.908;11.274;2023-12-22T01:23:46;0.40;;;0.40;;
81273;SDS011;70753;47.908;11.274;2023-12-22T01:26:11;0.35;;;0.35;;
81273;SDS011;70753;47.908;11.274;2023-12-22T01:28:37;0.63;;;0.47;;
81273;SDS011;70753;47.908;11.274;2023-12-22T01:31:02;0.32;;;0.30;;
81273;SDS011;70753;47.908;11.274;2023-12-22T01:33:28;0.93;;;0.50;;
81273;SDS011;70753;47.908;11.274;2023-12-22T01:35:53;0.32;;;0.32;;
81273;SDS011;70753;47.908;11.274;2023-12-22T01:38:19;0.47;;;0.30;;
81273;SDS011;70753;47.908;11.274;2023-12-22T01:40:46;0.50;;;0.50;;
81273;SDS011;70753;47.908;11.274;2023-12-22T01:43:11;0.55;;;0.40;;
81273;SDS011;70753;47.908;11.274;2023-12-22T01:45:37;1.90;;;0.38;;
81273;SDS011;70753;47.908;11.274;2023-12-22T01:48:03;0.45;;;0.45;;
81273;SDS011;70753;47.908;11.274;2023-12-22T01:50:29;1.13;;;0.52;;
81273;SDS011;70753;47.908;11.274;2023-12-22T01:52:55;0.30;;;0.30;;
81273;SDS011;70753;47.908;11.274;2023-12-22T01:55:21;0.55;;;0.55;;
81273;SDS011;70753;47.908;11.274;2023-12-22T01:57:48;0.35;;;0.35;;
81273;SDS011;70753;47.908;11.274;2023-12-22T02:00:14;0.35;;;0.35;;
81273;SDS011;70753;47.908;11.274;2023-12-22T02:02:41;0.47;;;0.47;;
81273;SDS011;70753;47.908;11.274;2023-12-22T02:05:07;0.38;;;0.35;;
81273;SDS011;70753;47.908;11.274;2023-12-22T02:07:33;0.55;;;0.43;;
81273;SDS011;70753;47.908;11.274;2023-12-22T02:09:58;0.57;;;0.50;;
81273;SDS011;70753;47.908;11.274;2023-12-22T02:12:24;0.50;;;0.50;;
81273;SDS011;70753;47.908;11.274;2023-12-22T02:14:50;0.90;;;0.43;;
81273;SDS011;70753;47.908;11.274;2023-12-22T02:17:18;0.93;;;0.50;;
81273;SDS011;70753;47.908;11.274;2023-12-22T02:19:49;0.63;;;0.50;;
81273;SDS011;70753;47.908;11.274;2023-12-22T02:22:16;1.05;;;0.50;;
81273;SDS011;70753;47.908;11.274;2023-12-22T02:24:42;1.92;;;0.68;;
81273;SDS011;70753;47.908;11.274;2023-12-22T02:27:10;2.15;;;0.80;;
81273;SDS011;70753;47.908;11.274;2023-12-22T02:29:43;1.88;;;0.63;;
81273;SDS011;70753;47.908;11.274;2023-12-22T02:32:16;2.00;;;0.82;;
81273;SDS011;70753;47.908;11.274;2023-12-22T02:34:46;2.38;;;0.80;;
81273;SDS011;70753;47.908;11.274;2023-12-22T02:37:15;2.17;;;1.10;;
81273;SDS011;70753;47.908;11.274;2023-12-22T02:39:44;1.85;;;0.77;;
81273;SDS011;70753;47.908;11.274;2023-12-22T02:42:10;4.78;;;1.55;;
81273;SDS011;70753;47.908;11.274;2023-12-22T02:44:36;2.17;;;0.82;;
81273;SDS011;70753;47.908;11.274;2023-12-22T02:47:03;1.45;;;0.70;;
81273;SDS011;70753;47.908;11.274;2023-12-22T02:49:28;4.10;;;0.85;;
81273;SDS011;70753;47.908;11.274;2023-12-22T02:51:54;1.90;;;0.70;;
81273;SDS011;70753;47.908;11.274;2023-12-22T02:54:19;2.25;;;0.75;;
81273;SDS011;70753;47.908;11.274;2023-12-22T02:56:46;2.30;;;1.15;;
81273;SDS011;70753;47.908;11.274;2023-12-22T02:59:12;2.03;;;0.60;;
81273;SDS011;70753;47.908;11.274;2023-12-22T03:01:38;2.22;;;0.60;;
81273;SDS011;70753;47.908;11.274;2023-12-22T03:04:03;2.58;;;0.55;;
81273;SDS011;70753;47.908;11.274;2023-12-22T03:06:29;1.33;;;0.68;;
81273;SDS011;70753;47.908;11.274;2023-12-22T03:08:54;1.08;;;0.70;;
81273;SDS011;70753;47.908;11.274;2023-12-22T03:11:19;3.65;;;1.13;;
81273;SDS011;70753;47.908;11.274;2023-12-22T03:13:46;2.65;;;0.70;;
81273;SDS011;70753;47.908;11.274;2023-12-22T03:16:14;2.85;;;0.82;;
81273;SDS011;70753;47.908;11.274;2023-12-22T03:18:40;3.15;;;0.70;;
81273;SDS011;70753;47.908;11.274;2023-12-22T03:21:05;2.97;;;0.60;;
81273;SDS011;70753;47.908;11.274;2023-12-22T03:23:30;0.57;;;0.40;;
81273;SDS011;70753;47.908;11.274;2023-12-22T03:25:56;0.40;;;0.40;;
81273;SDS011;70753;47.908;11.274;2023-12-22T03:28:21;1.52;;;0.60;;
81273;SDS011;70753;47.908;11.274;2023-12-22T03:30:48;1.05;;;0.50;;
81273;SDS011;70753;47.908;11.274;2023-12-22T03:33:14;0.43;;;0.40;;
81273;SDS011;70753;47.908;11.274;2023-12-22T03:35:39;0.77;;;0.60;;
81273;SDS011;70753;47.908;11.274;2023-12-22T03:38:05;1.17;;;0.50;;
81273;SDS011;70753;47.908;11.274;2023-12-22T03:40:31;4.63;;;0.70;;
81273;SDS011;70753;47.908;11.274;2023-12-22T03:42:56;1.08;;;0.60;;
81273;SDS011;70753;47.908;11.274;2023-12-22T03:45:21;1.40;;;0.70;;
81273;SDS011;70753;47.908;11.274;2023-12-22T03:47:48;1.08;;;0.50;;
81273;SDS011;70753;47.908;11.274;2023-12-22T03:50:14;0.98;;;0.50;;
81273;SDS011;70753;47.908;11.274;2023-12-22T03:52:39;0.40;;;0.40;;
81273;SDS011;70753;47.908;11.274;2023-12-22T03:55:05;2.20;;;0.50;;
81273;SDS011;70753;47.908;11.274;2023-12-22T03:57:31;0.30;;;0.30;;
81273;SDS011;70753;47.908;11.274;2023-12-22T03:59:56;0.70;;;0.45;;
81273;SDS011;70753;47.908;11.274;2023-12-22T04:02:21;1.95;;;0.80;;
81273;SDS011;70753;47.908;11.274;2023-12-22T04:04:48;2.95;;;0.60;;
81273;SDS011;70753;47.908;11.274;2023-12-22T04:07:13;1.10;;;0.70;;
81273;SDS011;70753;47.908;11.274;2023-12-22T04:09:39;2.63;;;0.80;;
81273;SDS011;70753;47.908;11.274;2023-12-22T04:12:05;1.38;;;0.50;;
81273;SDS011;70753;47.908;11.274;2023-12-22T04:14:31;1.25;;;0.60;;
81273;SDS011;70753;47.908;11.274;2023-12-22T04:16:57;0.88;;;0.50;;
81273;SDS011;70753;47.908;11.274;2023-12-22T04:19:22;1.85;;;0.68;;
81273;SDS011;70753;47.908;11.274;2023-12-22T04:21:49;1.58;;;0.60;;
81273;SDS011;70753;47.908;11.274;2023-12-22T04:24:15;3.63;;;0.70;;
81273;SDS011;70753;47.908;11.274;2023-12-22T04:26:40;0.82;;;0.52;;
81273;SDS011;70753;47.908;11.274;2023-12-22T04:29:05;1.45;;;0.68;;
81273;SDS011;70753;47.908;11.274;2023-12-22T04:31:31;0.98;;;0.50;;
81273;SDS011;70753;47.908;11.274;2023-12-22T04:33:56;2.58;;;0.80;;
81273;SDS011;70753;47.908;11.274;2023-12-22T04:36:22;1.48;;;0.57;;
81273;SDS011;70753;47.908;11.274;2023-12-22T04:38:49;0.90;;;0.63;;
81273;SDS011;70753;47.908;11.274;2023-12-22T04:41:14;1.80;;;0.80;;
81273;SDS011;70753;47.908;11.274;2023-12-22T04:43:40;1.55;;;0.68;;
81273;SDS011;70753;47.908;11.274;2023-12-22T04:46:05;1.98;;;0.73;;
81273;SDS011;70753;47.908;11.274;2023-12-22T04:48:30;3.20;;;0.75;;
81273;SDS011;70753;47.908;11.274;2023-12-22T04:50:56;3.00;;;0.85;;
81273;SDS011;70753;47.908;11.274;2023-12-22T04:53:21;1.77;;;0.70;;
81273;SDS011;70753;47.908;11.274;2023-12-22T04:55:48;1.52;;;0.65;;
81273;SDS011;70753;47.908;11.274;2023-12-22T04:58:14;2.58;;;0.63;;
81273;SDS011;70753;47.908;11.274;2023-12-22T05:00:39;5.18;;;0.85;;
81273;SDS011;70753;47.908;11.274;2023-12-22T05:03:05;2.88;;;0.60;;
81273;SDS011;70753;47.908;11.274;2023-12-22T05:05:30;1.33;;;0.57;;
81273;SDS011;70753;47.908;11.274;2023-12-22T05:07:56;1.23;;;0.70;;
81273;SDS011;70753;47.908;11.274;2023-12-22T05:10:21;2.15;;;0.60;;
81273;SDS011;70753;47.908;11.274;2023-12-22T05:12:48;2.28;;;0.60;;
81273;SDS011;70753;47.908;11.274;2023-12-22T05:15:13;0.65;;;0.50;;
81273;SDS011;70753;47.908;11.274;2023-12-22T05:17:39;1.50;;;0.73;;
81273;SDS011;70753;47.908;11.274;2023-12-22T05:20:04;1.88;;;0.55;;
81273;SDS011;70753;47.908;11.274;2023-12-22T05:22:30;1.17;;;0.80;;
81273;SDS011;70753;47.908;11.274;2023-12-22T05:24:57;1.75;;;0.63;;
81273;SDS011;70753;47.908;11.274;2023-12-22T05:27:22;1.08;;;0.45;;
81273;SDS011;70753;47.908;11.274;2023-12-22T05:29:50;2.50;;;0.70;;
81273;SDS011;70753;47.908;11.274;2023-12-22T05:32:16;1.45;;;0.60;;
81273;SDS011;70753;47.908;11.274;2023-12-22T05:34:41;1.60;;;0.70;;
81273;SDS011;70753;47.908;11.274;2023-12-22T05:37:07;1.10;;;0.60;;
81273;SDS011;70753;47.908;11.274;2023-12-22T05:39:32;2.25;;;0.80;;
81273;SDS011;70753;47.908;11.274;2023-12-22T05:41:57;2.10;;;0.70;;
81273;SDS011;70753;47.908;11.274;2023-12-22T05:44:24;2.10;;;0.63;;
81273;SDS011;70753;47.908;11.274;2023-12-22T05:46:51;1.25;;;0.57;;
81273;SDS011;70753;47.908;11.274;2023-12-22T05:49:16;1.75;;;0.65;;
81273;SDS011;70753;47.908;11.274;2023-12-22T05:51:41;2.00;;;0.98;;
81273;SDS011;70753;47.908;11.274;2023-12-22T05:54:07;2.03;;;1.20;;
81273;SDS011;70753;47.908;11.274;2023-12-22T05:56:34;2.95;;;0.80;;
81273;SDS011;70753;47.908;11.274;2023-12-22T05:58:59;2.05;;;0.77;;
81273;SDS011;70753;47.908;11.274;2023-12-22T06:01:25;1.70;;;0.73;;
81273;SDS011;70753;47.908;11.274;2023-12-22T06:03:53;2.63;;;0.90;;
81273;SDS011;70753;47.908;11.274;2023-12-22T06:06:18;2.95;;;0.80;;
81273;SDS011;70753;47.908;11.274;2023-12-22T06:08:44;3.03;;;1.00;;
81273;SDS011;70753;47.908;11.274;2023-12-22T06:11:09;2.03;;;1.10;;
81273;SDS011;70753;47.908;11.274;2023-12-22T06:13:34;4.35;;;1.10;;
81273;SDS011;70753;47.908;11.274;2023-12-22T06:16:00;3.17;;;1.10;;
81273;SDS011;70753;47.908;11.274;2023-12-22T06:18:26;2.78;;;0.90;;
81273;SDS011;70753;47.908;11.274;2023-12-22T06:20:52;2.67;;;0.70;;
81273;SDS011;70753;47.908;11.274;2023-12-22T06:23:18;2.70;;;0.95;;
81273;SDS011;70753;47.908;11.274;2023-12-22T06:25:43;3.08;;;0.80;;
81273;SDS011;70753;47.908;11.274;2023-12-22T06:28:09;5.68;;;1.23;;
81273;SDS011;70753;47.908;11.274;2023-12-22T06:30:35;1.27;;;0.65;;
81273;SDS011;70753;47.908;11.274;2023-12-22T06:33:00;2.35;;;0.90;;
81273;SDS011;70753;47.908;11.274;2023-12-22T06:35:26;3.17;;;0.90;;
81273;SDS011;70753;47.908;11.274;2023-12-22T06:37:52;2.05;;;0.73;;
81273;SDS011;70753;47.908;11.274;2023-12-22T06:40:18;0.73;;;0.35;;
81273;SDS011;70753;47.908;11.274;2023-12-22T06:42:43;4.57;;;0.80;;
81273;SDS011;70753;47.908;11.274;2023-12-22T06:45:09;2.00;;;0.75;;
81273;SDS011;70753;47.908;11.274;2023-12-22T06:47:34;2.25;;;0.60;;
81273;SDS011;70753;47.908;11.274;2023-12-22T06:50:00;2.65;;;1.00;;
81273;SDS011;70753;47.908;11.274;2023-12-22T06:52:25;3.05;;;1.45;;
81273;SDS011;70753;47.908;11.274;2023-12-22T06:54:52;1.83;;;0.90;;
81273;SDS011;70753;47.908;11.274;2023-12-22T06:57:17;1.52;;;0.65;;
81273;SDS011;70753;47.908;11.274;2023-12-22T06:59:43;3.95;;;1.13;;
81273;SDS011;70753;47.908;11.274;2023-12-22T07:02:08;3.08;;;0.80;;
81273;SDS011;70753;47.908;11.274;2023-12-22T07:04:34;3.58;;;0.98;;
81273;SDS011;70753;47.908;11.274;2023-12-22T07:06:59;4.80;;;0.70;;
81273;SDS011;70753;47.908;11.274;2023-12-22T07:09:29;2.42;;;0.80;;
81273;SDS011;70753;47.908;11.274;2023-12-22T07:14:22;1.85;;;0.80;;
81273;SDS011;70753;47.908;11.274;2023-12-22T07:16:48;3.60;;;1.08;;
81273;SDS011;70753;47.908;11.274;2023-12-22T07:19:13;5.03;;;1.30;;
81273;SDS011;70753;47.908;11.274;2023-12-22T07:21:39;3.95;;;0.90;;
81273;SDS011;70753;47.908;11.274;2023-12-22T07:24:05;3.72;;;0.80;;
81273;SDS011;70753;47.908;11.274;2023-12-22T07:26:30;2.60;;;0.85;;
81273;SDS011;70753;47.908;11.274;2023-12-22T07:28:57;6.25;;;1.20;;
81273;SDS011;70753;47.908;11.274;2023-12-22T07:31:23;3.90;;;1.45;;
81273;SDS011;70753;47.908;11.274;2023-12-22T07:33:48;3.90;;;1.00;;
81273;SDS011;70753;47.908;11.274;2023-12-22T07:36:13;3.85;;;1.15;;
81273;SDS011;70753;47.908;11.274;2023-12-22T07:38:39;7.50;;;1.35;;
81273;SDS011;70753;47.908;11.274;2023-12-22T07:41:04;4.82;;;1.88;;
81273;SDS011;70753;47.908;11.274;2023-12-22T07:43:32;2.47;;;0.88;;
81273;SDS011;70753;47.908;11.274;2023-12-22T07:45:59;3.15;;;0.95;;
81273;SDS011;70753;47.908;11.274;2023-12-22T07:48:24;3.65;;;0.90;;
81273;SDS011;70753;47.908;11.274;2023-12-22T07:50:50;3.08;;;0.95;;
81273;SDS011;70753;47.908;11.274;2023-12-22T07:53:15;5.55;;;1.00;;
81273;SDS011;70753;47.908;11.274;2023-12-22T07:55:41;2.63;;;1.00;;
81273;SDS011;70753;47.908;11.274;2023-12-22T07:58:08;3.95;;;1.23;;
81273;SDS011;70753;47.908;11.274;2023-12-22T08:00:33;3.65;;;1.00;;
81273;SDS011;70753;47.908;11.274;2023-12-22T08:03:00;2.47;;;1.00;;
81273;SDS011;70753;47.908;11.274;2023-12-22T08:05:26;2.85;;;1.30;;
81273;SDS011;70753;47.908;11.274;2023-12-22T08:07:51;3.03;;;1.08;;
81273;SDS011;70753;47.908;11.274;2023-12-22T08:10:16;2.25;;;1.00;;
81273;SDS011;70753;47.908;11.274;2023-12-22T08:12:42;3.90;;;1.10;;
81273;SDS011;70753;47.908;11.274;2023-12-22T08:15:08;2.45;;;0.93;;
81273;SDS011;70753;47.908;11.274;2023-12-22T08:17:33;5.05;;;1.10;;
81273;SDS011;70753;47.908;11.274;2023-12-22T08:20:00;1.92;;;0.90;;
81273;SDS011;70753;47.908;11.274;2023-12-22T08:22:25;3.28;;;1.00;;
81273;SDS011;70753;47.908;11.274;2023-12-22T08:24:51;3.92;;;0.80;;
81273;SDS011;70753;47.908;11.274;2023-12-22T08:27:17;1.38;;;0.70;;
81273;SDS011;70753;47.908;11.274;2023-12-22T08:29:42;6.10;;;1.00;;
81273;SDS011;70753;47.908;11.274;2023-12-22T08:32:07;2.13;;;0.90;;
81273;SDS011;70753;47.908;11.274;2023-12-22T08:34:33;3.45;;;0.88;;
81273;SDS011;70753;47.908;11.274;2023-12-22T08:36:59;4.50;;;0.80;;
81273;SDS011;70753;47.908;11.274;2023-12-22T08:39:25;4.45;;;0.95;;
81273;SDS011;70753;47.908;11.274;2023-12-22T08:41:50;2.13;;;0.85;;
81273;SDS011;70753;47.908;11.274;2023-12-22T08:44:16;1.20;;;0.70;;
81273;SDS011;70753;47.908;11.274;2023-12-22T08:46:41;1.02;;;0.70;;
81273;SDS011;70753;47.908;11.274;2023-12-22T08:49:07;4.25;;;0.82;;
81273;SDS011;70753;47.908;11.274;2023-12-22T08:51:32;2.95;;;0.80;;
81273;SDS011;70753;47.908;11.274;2023-12-22T08:54:00;1.90;;;0.80;;
81273;SDS011;70753;47.908;11.274;2023-12-22T08:56:25;4.15;;;0.90;;
81273;SDS011;70753;47.908;11.274;2023-12-22T08:58:51;2.63;;;0.80;;
81273;SDS011;70753;47.908;11.274;2023-12-22T09:01:18;3.80;;;1.25;;
81273;SDS011;70753;47.908;11.274;2023-12-22T09:03:44;2.08;;;1.00;;
81273;SDS011;70753;47.908;11.274;2023-12-22T09:06:10;2.13;;;0.70;;
81273;SDS011;70753;47.908;11.274;2023-12-22T09:08:35;5.47;;;1.08;;
81273;SDS011;70753;47.908;11.274;2023-12-22T09:11:02;2.50;;;0.73;;
81273;SDS011;70753;47.908;11.274;2023-12-22T09:13:28;3.97;;;0.80;;
81273;SDS011;70753;47.908;11.274;2023-12-22T09:15:53;4.75;;;0.80;;
81273;SDS011;70753;47.908;11.274;2023-12-22T09:18:19;3.45;;;0.90;;
81273;SDS011;70753;47.908;11.274;2023-12-22T09:20:44;4.57;;;1.08;;
81273;SDS011;70753;47.908;11.274;2023-12-22T09:23:10;3.22;;;0.85;;
81273;SDS011;70753;47.908;11.274;2023-12-22T09:25:35;3.17;;;1.00;;
81273;SDS011;70753;47.908;11.274;2023-12-22T09:28:02;3.55;;;0.90;;
81273;SDS011;70753;47.908;11.274;2023-12-22T09:30:28;2.78;;;1.00;;
81273;SDS011;70753;47.908;11.274;2023-12-22T09:32:53;2.92;;;0.82;;
81273;SDS011;70753;47.908;11.274;2023-12-22T09:35:19;3.40;;;0.90;;
81273;SDS011;70753;47.908;11.274;2023-12-22T09:37:44;3.08;;;0.85;;
81273;SDS011;70753;47.908;11.274;2023-12-22T09:40:11;2.42;;;1.08;;
81273;SDS011;70753;47.908;11.274;2023-12-22T09:42:37;2.97;;;0.95;;
81273;SDS011;70753;47.908;11.274;2023-12-22T09:45:08;3.08;;;0.75;;
81273;SDS011;70753;47.908;11.274;2023-12-22T09:47:36;3.92;;;1.40;;
81273;SDS011;70753;47.908;11.274;2023-12-22T09:50:04;6.35;;;1.13;;
81273;SDS011;70753;47.908;11.274;2023-12-22T09:52:32;3.70;;;1.10;;
81273;SDS011;70753;47.908;11.274;2023-12-22T09:55:00;3.13;;;1.08;;
81273;SDS011;70753;47.908;11.274;2023-12-22T09:57:26;2.85;;;0.98;;
81273;SDS011;70753;47.908;11.274;2023-12-22T09:59:54;2.45;;;0.70;;
81273;SDS011;70753;47.908;11.274;2023-12-22T10:02:23;3.90;;;0.85;;
81273;SDS011;70753;47.908;11.274;2023-12-22T10:04:50;2.80;;;0.98;;
81273;SDS011;70753;47.908;11.274;2023-12-22T10:07:15;5.85;;;1.45;;
81273;SDS011;70753;47.908;11.274;2023-12-22T10:09:42;3.75;;;1.33;;
81273;SDS011;70753;47.908;11.274;2023-12-22T10:12:08;5.25;;;1.10;;
81273;SDS011;70753;47.908;11.274;2023-12-22T10:14:36;3.28;;;0.95;;
81273;SDS011;70753;47.908;11.274;2023-12-22T10:17:03;2.95;;;0.70;;
81273;SDS011;70753;47.908;11.274;2023-12-22T10:19:30;3.08;;;0.82;;
81273;SDS011;70753;47.908;11.274;2023-12-22T10:21:55;3.25;;;0.70;;
81273;SDS011;70753;47.908;11.274;2023-12-22T10:27:11;3.03;;;1.13;;
81273;SDS011;70753;47.908;11.274;2023-12-22T10:29:36;4.00;;;0.90;;
81273;SDS011;70753;47.908;11.274;2023-12-22T10:32:03;2.40;;;0.80;;
81273;SDS011;70753;47.908;11.274;2023-12-22T10:34:31;2.47;;;0.93;;
81273;SDS011;70753;47.908;11.274;2023-12-22T10:36:58;4.38;;;0.93;;
81273;SDS011;70753;47.908;11.274;2023-12-22T10:39:26;4.38;;;1.15;;
81273;SDS011;70753;47.908;11.274;2023-12-22T10:41:52;4.30;;;0.90;;
81273;SDS011;70753;47.908;11.274;2023-12-22T10:44:18;2.78;;;0.70;;
81273;SDS011;70753;47.908;11.274;2023-12-22T10:46:43;3.53;;;0.98;;
81273;SDS011;70753;47.908;11.274;2023-12-22T10:49:09;2.25;;;1.10;;
81273;SDS011;70753;47.908;11.274;2023-12-22T10:51:36;3.78;;;1.00;;
81273;SDS011;70753;47.908;11.274;2023-12-22T10:54:02;4.60;;;0.77;;
81273;SDS011;70753;47.908;11.274;2023-12-22T10:56:29;3.45;;;1.00;;
81273;SDS011;70753;47.908;11.274;2023-12-22T10:58:55;5.43;;;1.10;;
81273;SDS011;70753;47.908;11.274;2023-12-22T11:01:20;1.52;;;0.85;;
81273;SDS011;70753;47.908;11.274;2023-12-22T11:03:47;3.65;;;1.00;;
81273;SDS011;70753;47.908;11.274;2023-12-22T11:06:15;2.65;;;0.80;;
81273;SDS011;70753;47.908;11.274;2023-12-22T11:08:43;4.57;;;0.93;;
81273;SDS011;70753;47.908;11.274;2023-12-22T11:11:11;3.20;;;1.13;;
81273;SDS011;70753;47.908;11.274;2023-12-22T11:13:40;5.63;;;0.85;;
81273;SDS011;70753;47.908;11.274;2023-12-22T11:16:08;2.75;;;0.93;;
81273;SDS011;70753;47.908;11.274;2023-12-22T11:18:35;3.58;;;0.80;;
81273;SDS011;70753;47.908;11.274;2023-12-22T11:21:01;4.00;;;1.00;;
81273;SDS011;70753;47.908;11.274;2023-12-22T11:23:30;3.35;;;1.25;;
81273;SDS011;70753;47.908;11.274;2023-12-22T11:25:58;3.55;;;1.25;;
81273;SDS011;70753;47.908;11.274;2023-12-22T11:28:26;3.13;;;1.05;;
81273;SDS011;70753;47.908;11.274;2023-12-22T11:30:52;5.82;;;0.95;;
81273;SDS011;70753;47.908;11.274;2023-12-22T11:33:19;1.40;;;0.80;;
81273;SDS011;70753;47.908;11.274;2023-12-22T11:35:46;3.53;;;0.82;;
81273;SDS011;70753;47.908;11.274;2023-12-22T11:38:12;2.88;;;0.90;;
81273;SDS011;70753;47.908;11.274;2023-12-22T11:40:39;2.40;;;0.80;;
81273;SDS011;70753;47.908;11.274;2023-12-22T11:43:06;7.25;;;1.08;;
81273;SDS011;70753;47.908;11.274;2023-12-22T11:45:32;3.20;;;1.00;;
81273;SDS011;70753;47.908;11.274;2023-12-22T11:48:04;5.03;;;1.27;;
81273;SDS011;70753;47.908;11.274;2023-12-22T11:50:31;5.13;;;1.05;;
81273;SDS011;70753;47.908;11.274;2023-12-22T11:52:56;1.55;;;0.80;;
81273;SDS011;70753;47.908;11.274;2023-12-22T11:58:39;3.88;;;0.98;;
81273;SDS011;70753;47.908;11.274;2023-12-22T12:01:06;2.83;;;0.95;;
81273;SDS011;70753;47.908;11.274;2023-12-22T12:03:32;3.78;;;0.95;;
81273;SDS011;70753;47.908;11.274;2023-12-22T12:06:11;5.43;;;1.00;;
81273;SDS011;70753;47.908;11.274;2023-12-22T12:08:40;4.85;;;1.13;;
81273;SDS011;70753;47.908;11.274;2023-12-22T12:11:05;4.00;;;0.90;;
81273;SDS011;70753;47.908;11.274;2023-12-22T12:13:31;7.53;;;1.40;;
81273;SDS011;70753;47.908;11.274;2023-12-22T12:15:59;5.82;;;1.25;;
81273;SDS011;70753;47.908;11.274;2023-12-22T12:18:26;4.88;;;1.05;;
81273;SDS011;70753;47.908;11.274;2023-12-22T12:20:52;4.60;;;0.95;;
81273;SDS011;70753;47.908;11.274;2023-12-22T12:23:18;3.35;;;1.00;;
81273;SDS011;70753;47.908;11.274;2023-12-22T12:25:44;4.82;;;0.95;;
81273;SDS011;70753;47.908;11.274;2023-12-22T12:28:09;3.50;;;0.80;;
81273;SDS011;70753;47.908;11.274;2023-12-22T12:30:35;4.78;;;1.00;;
81273;SDS011;70753;47.908;11.274;2023-12-22T12:33:07;3.08;;;0.88;;
81273;SDS011;70753;47.908;11.274;2023-12-22T12:35:33;5.45;;;0.98;;
81273;SDS011;70753;47.908;11.274;2023-12-22T12:38:00;2.13;;;0.70;;
81273;SDS011;70753;47.908;11.274;2023-12-22T12:40:27;2.97;;;1.10;;
81273;SDS011;70753;47.908;11.274;2023-12-22T12:42:52;2.97;;;0.70;;
81273;SDS011;70753;47.908;11.274;2023-12-22T12:45:21;3.45;;;0.80;;
81273;SDS011;70753;47.908;11.274;2023-12-22T12:47:54;4.53;;;1.20;;
81273;SDS011;70753;47.908;11.274;2023-12-22T12:50:22;3.15;;;0.90;;
81273;SDS011;70753;47.908;11.274;2023-12-22T12:52:48;3.42;;;1.00;;
81273;SDS011;70753;47.908;11.274;2023-12-22T12:55:13;1.75;;;0.75;;
81273;SDS011;70753;47.908;11.274;2023-12-22T12:57:39;5.72;;;1.02;;
81273;SDS011;70753;47.908;11.274;2023-12-22T13:00:04;5.28;;;1.30;;
81273;SDS011;70753;47.908;11.274;2023-12-22T13:02:31;3.75;;;0.95;;
81273;SDS011;70753;47.908;11.274;2023-12-22T13:05:00;4.05;;;1.17;;
81273;SDS011;70753;47.908;11.274;2023-12-22T13:07:27;2.28;;;0.90;;
81273;SDS011;70753;47.908;11.274;2023-12-22T13:09:52;2.80;;;1.00;;
81273;SDS011;70753;47.908;11.274;2023-12-22T13:12:18;3.97;;;0.70;;
81273;SDS011;70753;47.908;11.274;2023-12-22T13:14:43;3.05;;;0.80;;
81273;SDS011;70753;47.908;11.274;2023-12-22T13:17:10;5.15;;;0.85;;
81273;SDS011;70753;47.908;11.274;2023-12-22T13:19:36;2.95;;;1.00;;
81273;SDS011;70753;47.908;11.274;2023-12-22T13:22:03;3.95;;;1.10;;
81273;SDS011;70753;47.908;11.274;2023-12-22T13:24:30;2.47;;;0.63;;
81273;SDS011;70753;47.908;11.274;2023-12-22T13:26:59;1.52;;;0.70;;
81273;SDS011;70753;47.908;11.274;2023-12-22T13:29:25;2.78;;;0.90;;
81273;SDS011;70753;47.908;11.274;2023-12-22T13:31:50;1.83;;;0.63;;
81273;SDS011;70753;47.908;11.274;2023-12-22T13:34:16;1.40;;;0.60;;
81273;SDS011;70753;47.908;11.274;2023-12-22T13:36:41;1.48;;;0.70;;
81273;SDS011;70753;47.908;11.274;2023-12-22T13:39:07;2.70;;;0.60;;
81273;SDS011;70753;47.908;11.274;2023-12-22T13:41:36;1.45;;;0.60;;
81273;SDS011;70753;47.908;11.274;2023-12-22T13:44:04;1.90;;;0.90;;
81273;SDS011;70753;47.908;11.274;2023-12-22T13:46:30;1.95;;;0.60;;
81273;SDS011;70753;47.908;11.274;2023-12-22T13:48:56;1.17;;;0.70;;
81273;SDS011;70753;47.908;11.274;2023-12-22T13:51:22;1.23;;;0.50;;
81273;SDS011;70753;47.908;11.274;2023-12-22T13:53:49;3.10;;;0.63;;
81273;SDS011;70753;47.908;11.274;2023-12-22T13:56:15;2.65;;;0.40;;
81273;SDS011;70753;47.908;11.274;2023-12-22T13:58:45;2.33;;;0.63;;
81273;SDS011;70753;47.908;11.274;2023-12-22T14:01:15;0.50;;;0.50;;
81273;SDS011;70753;47.908;11.274;2023-12-22T14:03:41;1.48;;;0.60;;
81273;SDS011;70753;47.908;11.274;2023-12-22T14:06:07;1.13;;;0.63;;
81273;SDS011;70753;47.908;11.274;2023-12-22T14:08:32;2.17;;;0.70;;
81273;SDS011;70753;47.908;11.274;2023-12-22T14:10:58;1.00;;;0.45;;
81273;SDS011;70753;47.908;11.274;2023-12-22T14:13:24;0.93;;;0.52;;
81273;SDS011;70753;47.908;11.274;2023-12-22T14:15:51;1.25;;;0.50;;
81273;SDS011;70753;47.908;11.274;2023-12-22T14:18:16;0.55;;;0.47;;
81273;SDS011;70753;47.908;11.274;2023-12-22T14:20:41;0.40;;;0.40;;
81273;SDS011;70753;47.908;11.274;2023-12-22T14:23:08;0.80;;;0.47;;
81273;SDS011;70753;47.908;11.274;2023-12-22T14:25:33;0.50;;;0.50;;
81273;SDS011;70753;47.908;11.274;2023-12-22T14:27:58;0.50;;;0.50;;
81273;SDS011;70753;47.908;11.274;2023-12-22T14:30:24;0.45;;;0.40;;
81273;SDS011;70753;47.908;11.274;2023-12-22T14:32:51;0.95;;;0.45;;
81273;SDS011;70753;47.908;11.274;2023-12-22T14:35:16;0.68;;;0.43;;